A4081 KRND-KDLF
Flight info
| Callsign | A4081 |
|---|---|
| Flight time | 0h 58m |
| Altitude | 6000 |
| Route | ALISS7 ALISS WEBOX WEBOX4 |
| Aircraft | S22T/L-SDGRY/S |
Departure
| Time | 2026-05-07 22:52 |
|---|---|
| Airport | Randolph Air Force Base (KRND) |
Arrival
| Time | 2026-05-07 23:50 |
|---|---|
| Airport | Laughlin Air Force Base (KDLF) |
| Time | Latitude | Longitude | Altitude | Speed | Heading |
|---|---|---|---|---|---|
| 2026-05-07 22:30 | 29.53273 | -98.27136 | 741 ft | 0 kts | 65° |
| 2026-05-07 22:40 | 29.53273 | -98.27135 | 741 ft | 0 kts | 65° |
| 2026-05-07 22:41 | 29.53276 | -98.27105 | 741 ft | 9 kts | 108° |
| 2026-05-07 22:41 | 29.53211 | -98.27049 | 739 ft | 14 kts | 150° |
| 2026-05-07 22:41 | 29.53115 | -98.26986 | 739 ft | 17 kts | 150° |
| 2026-05-07 22:41 | 29.52999 | -98.26910 | 735 ft | 21 kts | 150° |
| 2026-05-07 22:42 | 29.52919 | -98.26877 | 734 ft | 0 kts | 228° |
| 2026-05-07 22:42 | 29.52918 | -98.26879 | 734 ft | 3 kts | 238° |
| 2026-05-07 22:42 | 29.52894 | -98.26932 | 733 ft | 11 kts | 226° |
| 2026-05-07 22:42 | 29.52803 | -98.26970 | 733 ft | 16 kts | 196° |
| 2026-05-07 22:43 | 29.52683 | -98.27006 | 734 ft | 19 kts | 193° |
| 2026-05-07 22:43 | 29.52549 | -98.27048 | 731 ft | 21 kts | 195° |
| 2026-05-07 22:43 | 29.52419 | -98.27099 | 731 ft | 15 kts | 232° |
| 2026-05-07 22:43 | 29.52363 | -98.27210 | 731 ft | 17 kts | 240° |
| 2026-05-07 22:44 | 29.52302 | -98.27332 | 731 ft | 18 kts | 239° |
| 2026-05-07 22:44 | 29.52238 | -98.27458 | 731 ft | 19 kts | 239° |
| 2026-05-07 22:44 | 29.52168 | -98.27595 | 728 ft | 20 kts | 239° |
| 2026-05-07 22:44 | 29.52119 | -98.27717 | 728 ft | 13 kts | 283° |
| 2026-05-07 22:45 | 29.52142 | -98.27824 | 730 ft | 14 kts | 286° |
| 2026-05-07 22:45 | 29.52159 | -98.27937 | 735 ft | 14 kts | 237° |
| 2026-05-07 22:45 | 29.52066 | -98.27975 | 734 ft | 16 kts | 194° |
| 2026-05-07 22:45 | 29.51948 | -98.28013 | 734 ft | 18 kts | 195° |
| 2026-05-07 22:46 | 29.51835 | -98.28014 | 734 ft | 15 kts | 151° |
| 2026-05-07 22:46 | 29.51731 | -98.27945 | 731 ft | 19 kts | 150° |
| 2026-05-07 22:46 | 29.51615 | -98.27871 | 729 ft | 14 kts | 151° |
| 2026-05-07 22:46 | 29.51589 | -98.27855 | 729 ft | 0 kts | 152° |
| 2026-05-07 22:48 | 29.51559 | -98.27856 | 729 ft | 9 kts | 230° |
| 2026-05-07 22:48 | 29.51547 | -98.27926 | 727 ft | 10 kts | 302° |
| 2026-05-07 22:48 | 29.51542 | -98.27992 | 727 ft | 12 kts | 277° |
| 2026-05-07 22:49 | 29.51572 | -98.28058 | 727 ft | 6 kts | 347° |
| 2026-05-07 22:49 | 29.51583 | -98.28064 | 727 ft | 0 kts | 325° |
| 2026-05-07 22:50 | 29.51747 | -98.28173 | 730 ft | 62 kts | 330° |
| 2026-05-07 22:51 | 29.52246 | -98.28510 | 812 ft | 95 kts | 326° |
| 2026-05-07 22:51 | 29.52830 | -98.28909 | 1037 ft | 98 kts | 327° |
| 2026-05-07 22:51 | 29.53428 | -98.29324 | 1210 ft | 108 kts | 323° |
| 2026-05-07 22:51 | 29.54080 | -98.29817 | 1334 ft | 116 kts | 326° |
| 2026-05-07 22:52 | 29.54772 | -98.30311 | 1496 ft | 119 kts | 326° |
| 2026-05-07 22:52 | 29.55498 | -98.30829 | 1784 ft | 122 kts | 326° |
| 2026-05-07 22:52 | 29.56217 | -98.31338 | 2113 ft | 122 kts | 326° |
| 2026-05-07 22:52 | 29.56931 | -98.31843 | 2434 ft | 122 kts | 326° |
| 2026-05-07 22:53 | 29.57608 | -98.32422 | 2762 ft | 122 kts | 304° |
| 2026-05-07 22:53 | 29.58053 | -98.33249 | 3086 ft | 123 kts | 303° |
| 2026-05-07 22:53 | 29.58547 | -98.34050 | 3419 ft | 123 kts | 303° |
| 2026-05-07 22:53 | 29.59044 | -98.34851 | 3747 ft | 124 kts | 303° |
| 2026-05-07 22:54 | 29.59546 | -98.35655 | 4078 ft | 124 kts | 304° |
| 2026-05-07 22:54 | 29.60052 | -98.36462 | 4406 ft | 125 kts | 303° |
| 2026-05-07 22:54 | 29.60562 | -98.37273 | 4735 ft | 125 kts | 304° |
| 2026-05-07 22:54 | 29.61074 | -98.38089 | 5062 ft | 126 kts | 304° |
| 2026-05-07 22:55 | 29.61590 | -98.38908 | 5396 ft | 127 kts | 304° |
| 2026-05-07 22:55 | 29.62107 | -98.39730 | 5723 ft | 127 kts | 304° |
| 2026-05-07 22:55 | 29.62627 | -98.40559 | 6050 ft | 128 kts | 304° |
| 2026-05-07 22:55 | 29.63143 | -98.41379 | 6368 ft | 128 kts | 304° |
| 2026-05-07 22:56 | 29.63667 | -98.42213 | 6696 ft | 129 kts | 304° |
| 2026-05-07 22:56 | 29.64194 | -98.43054 | 7024 ft | 130 kts | 304° |
| 2026-05-07 22:56 | 29.64725 | -98.43898 | 7349 ft | 130 kts | 304° |
| 2026-05-07 22:56 | 29.65258 | -98.44745 | 7675 ft | 131 kts | 304° |
| 2026-05-07 22:57 | 29.65793 | -98.45598 | 8002 ft | 132 kts | 304° |
| 2026-05-07 22:57 | 29.66331 | -98.46456 | 8329 ft | 132 kts | 304° |
| 2026-05-07 22:57 | 29.66871 | -98.47315 | 8652 ft | 133 kts | 304° |
| 2026-05-07 22:57 | 29.67414 | -98.48182 | 8977 ft | 134 kts | 304° |
| 2026-05-07 22:58 | 29.67961 | -98.49052 | 9301 ft | 135 kts | 304° |
| 2026-05-07 22:58 | 29.68509 | -98.49927 | 9610 ft | 135 kts | 304° |
| 2026-05-07 22:58 | 29.69060 | -98.50806 | 9948 ft | 136 kts | 304° |
| 2026-05-07 22:58 | 29.69615 | -98.51689 | 10270 ft | 137 kts | 304° |
| 2026-05-07 22:59 | 29.70172 | -98.52579 | 10595 ft | 137 kts | 304° |
| 2026-05-07 22:59 | 29.70732 | -98.53473 | 10916 ft | 138 kts | 304° |
| 2026-05-07 22:59 | 29.71295 | -98.54370 | 11238 ft | 139 kts | 304° |
| 2026-05-07 22:59 | 29.71854 | -98.55262 | 11556 ft | 139 kts | 304° |
| 2026-05-07 23:00 | 29.72422 | -98.56170 | 11878 ft | 140 kts | 304° |
| 2026-05-07 23:00 | 29.72993 | -98.57081 | 12198 ft | 141 kts | 304° |
| 2026-05-07 23:00 | 29.73567 | -98.57998 | 12517 ft | 142 kts | 304° |
| 2026-05-07 23:00 | 29.74143 | -98.58919 | 12838 ft | 142 kts | 304° |
| 2026-05-07 23:01 | 29.74722 | -98.59844 | 13156 ft | 143 kts | 304° |
| 2026-05-07 23:01 | 29.75304 | -98.60775 | 13474 ft | 144 kts | 304° |
| 2026-05-07 23:01 | 29.75891 | -98.61712 | 13792 ft | 144 kts | 304° |
| 2026-05-07 23:01 | 29.76479 | -98.62653 | 14109 ft | 145 kts | 304° |
| 2026-05-07 23:02 | 29.77071 | -98.63599 | 14427 ft | 146 kts | 304° |
| 2026-05-07 23:02 | 29.77667 | -98.64552 | 14745 ft | 147 kts | 304° |
| 2026-05-07 23:02 | 29.78267 | -98.65507 | 15061 ft | 148 kts | 307° |
| 2026-05-07 23:02 | 29.78926 | -98.66417 | 15377 ft | 148 kts | 307° |
| 2026-05-07 23:03 | 29.79578 | -98.67343 | 15692 ft | 149 kts | 307° |
| 2026-05-07 23:03 | 29.80233 | -98.68272 | 15988 ft | 152 kts | 307° |
| 2026-05-07 23:03 | 29.80943 | -98.69274 | 16014 ft | 170 kts | 308° |
| 2026-05-07 23:03 | 29.81724 | -98.70373 | 16014 ft | 184 kts | 308° |
| 2026-05-07 23:04 | 29.82549 | -98.71540 | 16013 ft | 192 kts | 308° |
| 2026-05-07 23:04 | 29.83412 | -98.72761 | 16010 ft | 198 kts | 308° |
| 2026-05-07 23:04 | 29.84291 | -98.74006 | 16010 ft | 202 kts | 308° |
| 2026-05-07 23:04 | 29.85172 | -98.75253 | 16011 ft | 204 kts | 308° |
| 2026-05-07 23:05 | 29.86075 | -98.76530 | 16010 ft | 206 kts | 308° |
| 2026-05-07 23:05 | 29.86983 | -98.77814 | 16007 ft | 207 kts | 308° |
| 2026-05-07 23:05 | 29.87894 | -98.79103 | 16008 ft | 208 kts | 308° |
| 2026-05-07 23:05 | 29.88808 | -98.80399 | 16010 ft | 208 kts | 308° |
| 2026-05-07 23:06 | 29.89722 | -98.81690 | 16009 ft | 208 kts | 308° |
| 2026-05-07 23:06 | 29.90641 | -98.82984 | 16009 ft | 208 kts | 308° |
| 2026-05-07 23:06 | 29.91560 | -98.84278 | 16010 ft | 208 kts | 308° |
| 2026-05-07 23:06 | 29.92474 | -98.85570 | 16010 ft | 209 kts | 308° |
| 2026-05-07 23:07 | 29.93393 | -98.86866 | 16010 ft | 209 kts | 308° |
| 2026-05-07 23:07 | 29.94311 | -98.88163 | 16010 ft | 209 kts | 308° |
| 2026-05-07 23:07 | 29.95216 | -98.89443 | 16009 ft | 209 kts | 308° |
| 2026-05-07 23:07 | 29.96135 | -98.90741 | 16009 ft | 209 kts | 308° |
| 2026-05-07 23:08 | 29.97052 | -98.92036 | 16009 ft | 209 kts | 308° |
| 2026-05-07 23:08 | 29.97971 | -98.93336 | 16009 ft | 209 kts | 308° |
| 2026-05-07 23:08 | 29.98887 | -98.94633 | 16009 ft | 209 kts | 308° |
| 2026-05-07 23:08 | 29.99806 | -98.95930 | 16008 ft | 209 kts | 308° |
| 2026-05-07 23:09 | 30.00722 | -98.97228 | 16008 ft | 209 kts | 308° |
| 2026-05-07 23:09 | 30.01639 | -98.98525 | 16008 ft | 209 kts | 308° |
| 2026-05-07 23:09 | 30.02555 | -98.99824 | 16008 ft | 209 kts | 308° |
| 2026-05-07 23:09 | 30.03471 | -99.01122 | 16008 ft | 209 kts | 308° |
| 2026-05-07 23:10 | 30.04387 | -99.02419 | 16007 ft | 209 kts | 308° |
| 2026-05-07 23:10 | 30.05303 | -99.03719 | 16007 ft | 209 kts | 308° |
| 2026-05-07 23:10 | 30.06221 | -99.05020 | 16007 ft | 209 kts | 308° |
| 2026-05-07 23:10 | 30.07136 | -99.06319 | 16007 ft | 209 kts | 308° |
| 2026-05-07 23:11 | 30.08054 | -99.07620 | 16007 ft | 209 kts | 308° |
| 2026-05-07 23:11 | 30.08969 | -99.08921 | 16006 ft | 209 kts | 308° |
| 2026-05-07 23:11 | 30.09885 | -99.10221 | 16006 ft | 209 kts | 308° |
| 2026-05-07 23:11 | 30.10659 | -99.11602 | 16007 ft | 208 kts | 291° |
| 2026-05-07 23:12 | 30.10964 | -99.13221 | 16009 ft | 207 kts | 271° |
| 2026-05-07 23:12 | 30.10784 | -99.14862 | 16010 ft | 206 kts | 256° |
| 2026-05-07 23:12 | 30.10467 | -99.16480 | 16009 ft | 206 kts | 257° |
| 2026-05-07 23:12 | 30.10164 | -99.18101 | 16010 ft | 206 kts | 257° |
| 2026-05-07 23:13 | 30.09857 | -99.19719 | 16010 ft | 206 kts | 257° |
| 2026-05-07 23:13 | 30.09547 | -99.21339 | 16008 ft | 207 kts | 257° |
| 2026-05-07 23:13 | 30.09236 | -99.22961 | 16008 ft | 207 kts | 257° |
| 2026-05-07 23:13 | 30.08927 | -99.24581 | 16008 ft | 207 kts | 256° |
| 2026-05-07 23:14 | 30.08615 | -99.26202 | 16008 ft | 207 kts | 257° |
| 2026-05-07 23:14 | 30.08306 | -99.27820 | 16008 ft | 207 kts | 256° |
| 2026-05-07 23:14 | 30.07995 | -99.29441 | 16007 ft | 207 kts | 257° |
| 2026-05-07 23:14 | 30.07685 | -99.31060 | 16007 ft | 207 kts | 256° |
| 2026-05-07 23:15 | 30.07374 | -99.32678 | 16007 ft | 207 kts | 257° |
| 2026-05-07 23:15 | 30.07063 | -99.34299 | 16006 ft | 207 kts | 257° |
| 2026-05-07 23:15 | 30.06751 | -99.35920 | 16006 ft | 207 kts | 256° |
| 2026-05-07 23:15 | 30.06439 | -99.37539 | 16006 ft | 207 kts | 256° |
| 2026-05-07 23:16 | 30.06128 | -99.39161 | 16005 ft | 207 kts | 256° |
| 2026-05-07 23:16 | 30.05816 | -99.40776 | 16005 ft | 206 kts | 256° |
| 2026-05-07 23:16 | 30.05509 | -99.42374 | 16005 ft | 206 kts | 256° |
| 2026-05-07 23:16 | 30.05196 | -99.43992 | 16004 ft | 206 kts | 256° |
| 2026-05-07 23:17 | 30.04884 | -99.45609 | 16004 ft | 206 kts | 256° |
| 2026-05-07 23:17 | 30.04572 | -99.47226 | 16004 ft | 206 kts | 256° |
| 2026-05-07 23:17 | 30.04259 | -99.48844 | 16003 ft | 206 kts | 256° |
| 2026-05-07 23:17 | 30.03946 | -99.50462 | 16003 ft | 206 kts | 256° |
| 2026-05-07 23:18 | 30.03633 | -99.52077 | 16003 ft | 206 kts | 256° |
| 2026-05-07 23:18 | 30.03321 | -99.53693 | 16002 ft | 206 kts | 256° |
| 2026-05-07 23:18 | 30.03006 | -99.55311 | 16002 ft | 206 kts | 256° |
| 2026-05-07 23:18 | 30.02693 | -99.56928 | 16002 ft | 206 kts | 256° |
| 2026-05-07 23:19 | 30.02379 | -99.58545 | 16001 ft | 206 kts | 256° |
| 2026-05-07 23:19 | 30.02065 | -99.60162 | 16001 ft | 206 kts | 256° |
| 2026-05-07 23:19 | 30.01751 | -99.61777 | 16001 ft | 206 kts | 256° |
| 2026-05-07 23:19 | 30.01437 | -99.63395 | 16000 ft | 206 kts | 256° |
| 2026-05-07 23:20 | 30.01121 | -99.65012 | 16000 ft | 206 kts | 256° |
| 2026-05-07 23:20 | 30.00807 | -99.66628 | 15999 ft | 206 kts | 256° |
| 2026-05-07 23:20 | 30.00495 | -99.68223 | 15999 ft | 206 kts | 256° |
| 2026-05-07 23:20 | 30.00181 | -99.69840 | 15999 ft | 206 kts | 256° |
| 2026-05-07 23:21 | 29.99864 | -99.71454 | 15998 ft | 206 kts | 256° |
| 2026-05-07 23:21 | 29.99550 | -99.73070 | 15998 ft | 206 kts | 256° |
| 2026-05-07 23:21 | 29.99234 | -99.74684 | 15998 ft | 206 kts | 256° |
| 2026-05-07 23:21 | 29.98919 | -99.76299 | 15997 ft | 206 kts | 256° |
| 2026-05-07 23:22 | 29.98602 | -99.77913 | 15997 ft | 206 kts | 256° |
| 2026-05-07 23:22 | 29.98286 | -99.79529 | 15997 ft | 206 kts | 256° |
| 2026-05-07 23:22 | 29.97969 | -99.81144 | 15996 ft | 206 kts | 256° |
| 2026-05-07 23:22 | 29.97653 | -99.82758 | 15996 ft | 206 kts | 256° |
| 2026-05-07 23:23 | 29.97336 | -99.84373 | 15995 ft | 206 kts | 256° |
| 2026-05-07 23:23 | 29.97018 | -99.85989 | 15995 ft | 206 kts | 256° |
| 2026-05-07 23:23 | 29.96701 | -99.87603 | 15995 ft | 206 kts | 256° |
| 2026-05-07 23:23 | 29.96382 | -99.89222 | 15995 ft | 206 kts | 256° |
| 2026-05-07 23:24 | 29.96069 | -99.90817 | 15994 ft | 206 kts | 256° |
| 2026-05-07 23:24 | 29.95751 | -99.92430 | 15994 ft | 206 kts | 256° |
| 2026-05-07 23:24 | 29.95433 | -99.94044 | 15994 ft | 206 kts | 256° |
| 2026-05-07 23:24 | 29.95114 | -99.95660 | 15993 ft | 207 kts | 256° |
| 2026-05-07 23:25 | 29.94796 | -99.97274 | 15994 ft | 206 kts | 256° |
| 2026-05-07 23:25 | 29.94477 | -99.98887 | 15993 ft | 206 kts | 256° |
| 2026-05-07 23:25 | 29.94159 | -100.00500 | 15992 ft | 206 kts | 256° |
| 2026-05-07 23:25 | 29.93839 | -100.02114 | 15992 ft | 206 kts | 256° |
| 2026-05-07 23:26 | 29.93519 | -100.03731 | 15991 ft | 206 kts | 256° |
| 2026-05-07 23:26 | 29.93200 | -100.05343 | 15992 ft | 206 kts | 256° |
| 2026-05-07 23:26 | 29.92773 | -100.06916 | 15992 ft | 206 kts | 242° |
| 2026-05-07 23:26 | 29.91911 | -100.08226 | 15999 ft | 205 kts | 226° |
| 2026-05-07 23:27 | 29.89962 | -100.10641 | 16000 ft | 206 kts | 227° |
| 2026-05-07 23:27 | 29.88989 | -100.11853 | 16000 ft | 206 kts | 226° |
| 2026-05-07 23:27 | 29.88017 | -100.13064 | 16000 ft | 206 kts | 226° |
| 2026-05-07 23:28 | 29.87044 | -100.14274 | 16000 ft | 206 kts | 226° |
| 2026-05-07 23:28 | 29.86069 | -100.15485 | 16000 ft | 206 kts | 226° |
| 2026-05-07 23:28 | 29.85097 | -100.16694 | 15999 ft | 206 kts | 226° |
| 2026-05-07 23:28 | 29.84121 | -100.17908 | 15999 ft | 206 kts | 226° |
| 2026-05-07 23:29 | 29.83146 | -100.19119 | 15998 ft | 206 kts | 226° |
| 2026-05-07 23:29 | 29.82172 | -100.20329 | 15998 ft | 206 kts | 226° |
| 2026-05-07 23:29 | 29.81193 | -100.21546 | 15723 ft | 218 kts | 227° |
| 2026-05-07 23:29 | 29.80155 | -100.22852 | 15287 ft | 217 kts | 229° |
| 2026-05-07 23:30 | 29.79186 | -100.24112 | 14837 ft | 205 kts | 228° |
| 2026-05-07 23:30 | 29.78539 | -100.24913 | 14528 ft | 199 kts | 227° |
| 2026-05-07 23:30 | 29.77308 | -100.26414 | 14009 ft | 188 kts | 227° |
| 2026-05-07 23:30 | 29.76391 | -100.27497 | 13996 ft | 192 kts | 225° |
| 2026-05-07 23:31 | 29.75762 | -100.28251 | 13997 ft | 194 kts | 226° |
| 2026-05-07 23:31 | 29.74840 | -100.29399 | 13999 ft | 197 kts | 227° |
| 2026-05-07 23:31 | 29.73908 | -100.30564 | 13998 ft | 198 kts | 227° |
| 2026-05-07 23:31 | 29.72972 | -100.31731 | 14000 ft | 199 kts | 226° |
| 2026-05-07 23:32 | 29.72041 | -100.32887 | 14002 ft | 200 kts | 226° |
| 2026-05-07 23:32 | 29.71095 | -100.34058 | 14008 ft | 200 kts | 226° |
| 2026-05-07 23:32 | 29.70147 | -100.35233 | 14009 ft | 200 kts | 226° |
| 2026-05-07 23:32 | 29.69197 | -100.36409 | 14004 ft | 201 kts | 226° |
| 2026-05-07 23:33 | 29.68248 | -100.37584 | 14010 ft | 201 kts | 226° |
| 2026-05-07 23:33 | 29.67297 | -100.38760 | 14008 ft | 201 kts | 226° |
| 2026-05-07 23:33 | 29.66345 | -100.39937 | 14011 ft | 201 kts | 226° |
| 2026-05-07 23:33 | 29.65392 | -100.41115 | 14005 ft | 201 kts | 226° |
| 2026-05-07 23:34 | 29.64440 | -100.42291 | 14006 ft | 201 kts | 226° |
| 2026-05-07 23:34 | 29.63488 | -100.43469 | 14006 ft | 201 kts | 226° |
| 2026-05-07 23:34 | 29.62535 | -100.44646 | 14004 ft | 201 kts | 226° |
| 2026-05-07 23:34 | 29.61580 | -100.45823 | 14006 ft | 201 kts | 226° |
| 2026-05-07 23:35 | 29.60628 | -100.46997 | 14002 ft | 201 kts | 226° |
| 2026-05-07 23:35 | 29.59675 | -100.48173 | 14005 ft | 201 kts | 226° |
| 2026-05-07 23:35 | 29.58721 | -100.49350 | 14001 ft | 201 kts | 226° |
| 2026-05-07 23:35 | 29.57780 | -100.50510 | 14001 ft | 201 kts | 226° |
| 2026-05-07 23:36 | 29.56825 | -100.51687 | 14003 ft | 201 kts | 226° |
| 2026-05-07 23:36 | 29.55871 | -100.52862 | 14003 ft | 201 kts | 226° |
| 2026-05-07 23:36 | 29.54918 | -100.54035 | 14000 ft | 201 kts | 226° |
| 2026-05-07 23:36 | 29.53963 | -100.55211 | 14003 ft | 201 kts | 226° |
| 2026-05-07 23:37 | 29.53009 | -100.56385 | 14000 ft | 201 kts | 226° |
| 2026-05-07 23:37 | 29.52055 | -100.57563 | 14000 ft | 201 kts | 227° |
| 2026-05-07 23:37 | 29.51340 | -100.58931 | 13988 ft | 201 kts | 249° |
| 2026-05-07 23:37 | 29.51100 | -100.60508 | 14004 ft | 201 kts | 269° |
| 2026-05-07 23:38 | 29.51357 | -100.62052 | 13783 ft | 192 kts | 291° |
| 2026-05-07 23:38 | 29.52008 | -100.63327 | 13500 ft | 185 kts | 307° |
| 2026-05-07 23:38 | 29.52751 | -100.64506 | 13218 ft | 180 kts | 302° |
| 2026-05-07 23:38 | 29.53402 | -100.65716 | 12930 ft | 177 kts | 299° |
| 2026-05-07 23:39 | 29.53925 | -100.66976 | 12646 ft | 174 kts | 284° |
| 2026-05-07 23:39 | 29.54118 | -100.68362 | 11926 ft | 187 kts | 276° |
| 2026-05-07 23:39 | 29.54311 | -100.69871 | 11271 ft | 193 kts | 279° |
| 2026-05-07 23:39 | 29.54562 | -100.71392 | 10615 ft | 195 kts | 281° |
| 2026-05-07 23:40 | 29.54822 | -100.72924 | 9955 ft | 195 kts | 281° |
| 2026-05-07 23:40 | 29.55081 | -100.74459 | 9291 ft | 195 kts | 280° |
| 2026-05-07 23:40 | 29.55334 | -100.75988 | 8625 ft | 195 kts | 280° |
| 2026-05-07 23:40 | 29.55566 | -100.77494 | 7968 ft | 193 kts | 274° |
| 2026-05-07 23:41 | 29.55581 | -100.78950 | 7875 ft | 164 kts | 269° |
| 2026-05-07 23:41 | 29.55651 | -100.80134 | 7950 ft | 136 kts | 275° |
| 2026-05-07 23:41 | 29.55587 | -100.81167 | 7899 ft | 127 kts | 263° |
| 2026-05-07 23:41 | 29.55458 | -100.82246 | 7347 ft | 150 kts | 259° |
| 2026-05-07 23:42 | 29.55238 | -100.83391 | 7190 ft | 138 kts | 255° |
| 2026-05-07 23:42 | 29.54959 | -100.84530 | 6461 ft | 163 kts | 252° |
| 2026-05-07 23:42 | 29.54558 | -100.85825 | 5712 ft | 178 kts | 249° |
| 2026-05-07 23:42 | 29.54060 | -100.87149 | 4995 ft | 183 kts | 244° |
| 2026-05-07 23:43 | 29.53482 | -100.88435 | 4435 ft | 179 kts | 241° |
| 2026-05-07 23:43 | 29.52848 | -100.89647 | 3868 ft | 176 kts | 237° |
| 2026-05-07 23:43 | 29.52167 | -100.90775 | 3546 ft | 161 kts | 233° |
| 2026-05-07 23:43 | 29.51503 | -100.91685 | 3485 ft | 138 kts | 223° |
| 2026-05-07 23:44 | 29.50781 | -100.92305 | 3418 ft | 122 kts | 215° |
| 2026-05-07 23:44 | 29.50043 | -100.92724 | 3359 ft | 114 kts | 194° |
| 2026-05-07 23:44 | 29.49265 | -100.92625 | 3231 ft | 120 kts | 150° |
| 2026-05-07 23:44 | 29.48595 | -100.92045 | 3146 ft | 119 kts | 146° |
| 2026-05-07 23:45 | 29.47924 | -100.91434 | 2939 ft | 125 kts | 141° |
| 2026-05-07 23:45 | 29.47319 | -100.90745 | 2985 ft | 123 kts | 130° |
| 2026-05-07 23:45 | 29.46773 | -100.89990 | 3011 ft | 123 kts | 132° |
| 2026-05-07 23:45 | 29.46186 | -100.89307 | 3105 ft | 117 kts | 139° |
| 2026-05-07 23:46 | 29.45555 | -100.88673 | 3089 ft | 123 kts | 141° |
| 2026-05-07 23:46 | 29.44894 | -100.88051 | 3106 ft | 124 kts | 141° |
| 2026-05-07 23:46 | 29.44272 | -100.87350 | 3099 ft | 127 kts | 132° |
| 2026-05-07 23:46 | 29.43691 | -100.86556 | 3039 ft | 133 kts | 131° |
| 2026-05-07 23:47 | 29.43057 | -100.85774 | 2973 ft | 135 kts | 137° |
| 2026-05-07 23:47 | 29.42334 | -100.85049 | 2827 ft | 138 kts | 141° |
| 2026-05-07 23:47 | 29.41618 | -100.84341 | 2702 ft | 138 kts | 136° |
| 2026-05-07 23:47 | 29.40943 | -100.83522 | 2375 ft | 141 kts | 134° |
| 2026-05-07 23:48 | 29.40299 | -100.82753 | 2117 ft | 127 kts | 137° |
| 2026-05-07 23:48 | 29.39719 | -100.82127 | 1917 ft | 104 kts | 138° |
| 2026-05-07 23:48 | 29.39228 | -100.81584 | 1760 ft | 97 kts | 135° |
| 2026-05-07 23:48 | 29.38762 | -100.81023 | 1658 ft | 98 kts | 135° |
| 2026-05-07 23:49 | 29.38279 | -100.80483 | 1557 ft | 97 kts | 141° |
| 2026-05-07 23:49 | 29.37789 | -100.79948 | 1407 ft | 97 kts | 135° |
| 2026-05-07 23:49 | 29.37312 | -100.79411 | 1272 ft | 95 kts | 137° |
| 2026-05-07 23:49 | 29.36838 | -100.78883 | 1140 ft | 95 kts | 137° |
| 2026-05-07 23:50 | 29.36405 | -100.78405 | 1084 ft | 72 kts | 135° |
| 2026-05-07 23:50 | 29.36121 | -100.78088 | 1083 ft | 41 kts | 136° |
| 2026-05-07 23:50 | 29.35968 | -100.77920 | 1080 ft | 26 kts | 135° |
| 2026-05-07 23:50 | 29.35883 | -100.77911 | 1081 ft | 13 kts | 227° |
| 2026-05-07 23:51 | 29.35814 | -100.77992 | 1082 ft | 15 kts | 224° |
| 2026-05-07 23:51 | 29.35740 | -100.78078 | 1082 ft | 14 kts | 225° |
| 2026-05-07 23:51 | 29.35679 | -100.78152 | 1083 ft | 8 kts | 210° |
| 2026-05-07 23:51 | 29.35655 | -100.78142 | 1084 ft | 0 kts | 133° |